createdAt,value
2018-09-26T00:01:43.817Z,1.90
2018-09-26T00:04:16.270Z,1.80
2018-09-26T00:06:45.091Z,1.70
2018-09-26T00:09:14.406Z,1.70
2018-09-26T00:11:43.278Z,1.60
2018-09-26T00:14:12.232Z,1.60
2018-09-26T00:16:41.292Z,1.70
2018-09-26T00:19:10.213Z,1.60
2018-09-26T00:21:39.369Z,1.60
2018-09-26T00:24:08.350Z,1.60
2018-09-26T00:26:37.322Z,1.50
2018-09-26T00:29:07.028Z,1.50
2018-09-26T00:31:36.049Z,1.60
2018-09-26T00:34:05.596Z,1.60
2018-09-26T00:36:34.654Z,1.50
2018-09-26T00:39:03.658Z,1.50
2018-09-26T00:41:32.903Z,1.50
2018-09-26T00:44:02.200Z,1.50
2018-09-26T00:46:31.460Z,1.50
2018-09-26T00:49:00.588Z,1.50
2018-09-26T00:51:29.585Z,1.50
2018-09-26T00:53:58.405Z,1.40
2018-09-26T00:56:27.291Z,1.30
2018-09-26T00:58:56.440Z,1.20
2018-09-26T01:01:35.788Z,1.10
2018-09-26T01:04:08.206Z,1.10
2018-09-26T01:06:37.276Z,1.20
2018-09-26T01:09:09.379Z,1.20
2018-09-26T01:11:38.446Z,1.20
2018-09-26T01:14:07.760Z,1.10
2018-09-26T01:16:44.143Z,1.00
2018-09-26T01:19:13.467Z,0.90
2018-09-26T01:21:42.315Z,1.00
2018-09-26T01:24:11.174Z,1.10
2018-09-26T01:26:40.154Z,1.10
2018-09-26T01:29:09.062Z,1.00
2018-09-26T01:31:38.043Z,1.00
2018-09-26T01:34:06.864Z,1.00
2018-09-26T01:36:35.712Z,1.10
2018-09-26T01:39:04.942Z,1.10
2018-09-26T01:41:33.991Z,1.10
2018-09-26T01:44:03.174Z,1.00
2018-09-26T01:46:32.076Z,0.90
2018-09-26T01:49:00.889Z,0.80
2018-09-26T01:51:29.781Z,0.80
2018-09-26T01:53:58.754Z,0.90
2018-09-26T01:56:28.013Z,0.90
2018-09-26T01:58:56.903Z,0.90
2018-09-26T02:01:25.770Z,0.80
2018-09-26T02:03:54.623Z,0.80
2018-09-26T02:06:23.446Z,0.80
2018-09-26T02:08:52.510Z,0.70
2018-09-26T02:11:21.611Z,0.70
2018-09-26T02:13:50.419Z,0.60
2018-09-26T02:16:19.711Z,0.60
2018-09-26T02:18:48.601Z,0.60
2018-09-26T02:21:18.309Z,0.70
2018-09-26T02:23:47.195Z,0.80
2018-09-26T02:26:16.055Z,0.70
2018-09-26T02:28:44.923Z,0.50
2018-09-26T02:31:13.671Z,0.30
2018-09-26T02:33:42.933Z,0.20
2018-09-26T02:36:11.927Z,0.10
2018-09-26T02:38:40.996Z,0.10
2018-09-26T02:41:09.887Z,0.20
2018-09-26T02:43:38.887Z,0.30
2018-09-26T02:46:07.797Z,0.30
2018-09-26T02:48:41.808Z,0.20
2018-09-26T02:51:10.644Z,0.10
2018-09-26T02:53:39.599Z,0.10
2018-09-26T02:56:08.803Z,0.10
2018-09-26T02:58:37.566Z,0.10
2018-09-26T03:01:06.463Z,0.20
2018-09-26T03:03:35.418Z,0.10
2018-09-26T03:06:04.440Z,0.10
2018-09-26T03:08:33.488Z,0.10
2018-09-26T03:11:02.440Z,0.10
2018-09-26T03:13:31.495Z,0.10
2018-09-26T03:16:00.477Z,0.10
2018-09-26T03:18:29.353Z,0.00
2018-09-26T03:20:58.346Z,0.00
2018-09-26T03:23:27.452Z,-0.10
2018-09-26T03:25:56.359Z,-0.10
2018-09-26T03:28:25.466Z,-0.20
2018-09-26T03:30:54.359Z,-0.30
2018-09-26T03:33:23.381Z,-0.30
2018-09-26T03:35:52.293Z,-0.20
2018-09-26T03:38:21.116Z,-0.30
2018-09-26T03:40:49.982Z,-0.30
2018-09-26T03:43:18.924Z,-0.40
2018-09-26T03:45:48.183Z,-0.50
2018-09-26T03:48:17.265Z,-0.50
2018-09-26T03:50:46.107Z,-0.50
2018-09-26T03:53:15.024Z,-0.50
2018-09-26T03:55:43.812Z,-0.50
2018-09-26T03:58:12.778Z,-0.40
2018-09-26T04:00:44.351Z,-0.40
2018-09-26T04:03:13.492Z,-0.30
2018-09-26T04:05:42.333Z,-0.30
2018-09-26T04:08:11.454Z,-0.40
2018-09-26T04:10:40.317Z,-0.40
2018-09-26T04:13:10.003Z,-0.40
2018-09-26T04:15:43.137Z,-0.40
2018-09-26T04:18:12.086Z,-0.40
2018-09-26T04:20:40.983Z,-0.50
2018-09-26T04:23:09.913Z,-0.50
2018-09-26T04:25:38.989Z,-0.50
2018-09-26T04:28:07.777Z,-0.60
2018-09-26T04:30:39.843Z,-0.60
2018-09-26T04:33:09.306Z,-0.60
2018-09-26T04:35:38.095Z,-0.60
2018-09-26T04:38:07.467Z,-0.70
2018-09-26T04:40:36.455Z,-0.90
2018-09-26T04:43:05.354Z,-0.90
2018-09-26T04:45:34.216Z,-1.00
2018-09-26T04:48:03.222Z,-1.00
2018-09-26T04:50:32.118Z,-1.10
2018-09-26T04:53:01.170Z,-1.20
2018-09-26T04:55:29.982Z,-1.10
2018-09-26T04:57:58.890Z,-1.10
2018-09-26T05:00:28.071Z,-1.10
2018-09-26T05:02:57.037Z,-1.00
2018-09-26T05:05:25.833Z,-1.10
2018-09-26T05:07:54.622Z,-1.00
2018-09-26T05:10:23.409Z,-1.10
2018-09-26T05:12:52.410Z,-1.20
2018-09-26T05:15:21.564Z,-1.20
2018-09-26T05:17:50.710Z,-1.20
2018-09-26T05:20:19.492Z,-1.20
2018-09-26T05:22:48.252Z,-1.20
2018-09-26T05:25:17.034Z,-1.10
2018-09-26T05:27:45.835Z,-1.00
2018-09-26T05:30:14.807Z,-1.00
2018-09-26T05:32:43.653Z,-0.90
2018-09-26T05:35:12.451Z,-0.90
2018-09-26T05:37:41.161Z,-0.90
2018-09-26T05:40:10.034Z,-0.80
2018-09-26T05:42:38.745Z,-0.80
2018-09-26T05:45:07.497Z,-0.80
2018-09-26T05:47:36.402Z,-0.80
2018-09-26T05:50:05.411Z,-0.60
2018-09-26T05:52:34.438Z,-0.50
2018-09-26T05:55:03.368Z,-0.40
2018-09-26T05:57:32.287Z,-0.30
2018-09-26T06:00:01.152Z,-0.30
2018-09-26T06:02:30.141Z,-0.30
2018-09-26T06:04:59.142Z,-0.20
2018-09-26T06:07:28.155Z,-0.20
2018-09-26T06:09:57.145Z,-0.10
2018-09-26T06:12:26.139Z,-0.20
2018-09-26T06:14:54.966Z,-0.10
2018-09-26T06:17:23.858Z,0.10
2018-09-26T06:19:52.853Z,0.30
2018-09-26T06:22:21.760Z,0.40
2018-09-26T06:24:50.783Z,0.60
2018-09-26T06:27:19.507Z,0.70
2018-09-26T06:29:48.282Z,0.80
2018-09-26T06:32:17.242Z,0.90
2018-09-26T06:34:46.087Z,1.00
2018-09-26T06:37:14.951Z,1.10
2018-09-26T06:39:43.736Z,1.20
2018-09-26T06:42:12.494Z,1.40
2018-09-26T06:44:41.412Z,1.50
2018-09-26T06:47:10.294Z,1.60
2018-09-26T06:49:39.139Z,1.70
2018-09-26T06:52:08.080Z,1.90
2018-09-26T06:54:36.913Z,2.00
2018-09-26T06:57:05.801Z,2.10
2018-09-26T06:59:35.379Z,2.20
2018-09-26T07:02:04.211Z,2.30
2018-09-26T07:04:32.982Z,2.40
2018-09-26T07:07:01.773Z,2.60
2018-09-26T07:09:30.772Z,2.70
2018-09-26T07:11:59.551Z,2.80
2018-09-26T07:14:28.356Z,2.90
2018-09-26T07:16:57.114Z,3.10
2018-09-26T07:19:25.890Z,3.30
2018-09-26T07:21:54.834Z,3.40
2018-09-26T07:24:23.557Z,3.50
2018-09-26T07:26:52.362Z,3.70
2018-09-26T07:29:21.118Z,3.80
2018-09-26T07:31:49.888Z,4.00
2018-09-26T07:34:21.684Z,4.10
2018-09-26T07:36:50.432Z,4.30
2018-09-26T07:39:19.187Z,4.40
2018-09-26T07:41:47.953Z,4.60
2018-09-26T07:44:16.779Z,4.80
2018-09-26T07:46:45.631Z,5.00
2018-09-26T07:49:14.802Z,5.30
2018-09-26T07:51:43.670Z,5.50
2018-09-26T07:54:12.620Z,5.90
2018-09-26T07:56:41.806Z,6.50
2018-09-26T07:59:10.901Z,7.40
2018-09-26T08:01:39.628Z,7.80
2018-09-26T08:04:08.692Z,8.10
2018-09-26T08:06:37.548Z,8.60
2018-09-26T08:09:07.915Z,9.10
2018-09-26T08:11:36.873Z,9.80
2018-09-26T08:14:06.302Z,10.60
2018-09-26T08:16:35.604Z,11.30
2018-09-26T08:19:04.579Z,11.80
2018-09-26T08:21:33.443Z,12.40
2018-09-26T08:24:02.381Z,12.80
2018-09-26T08:26:31.473Z,13.10
2018-09-26T08:29:00.295Z,12.90
2018-09-26T08:31:29.196Z,12.70
2018-09-26T08:33:58.245Z,12.40
2018-09-26T08:36:27.034Z,12.50
2018-09-26T08:38:56.239Z,12.40
2018-09-26T08:41:25.039Z,12.40
2018-09-26T08:43:53.931Z,12.80
2018-09-26T08:46:22.818Z,13.50
2018-09-26T08:48:51.674Z,14.30
2018-09-26T08:51:20.728Z,15.00
2018-09-26T08:53:49.742Z,15.80
2018-09-26T08:56:19.009Z,16.60
2018-09-26T08:58:47.821Z,17.20
2018-09-26T09:01:21.776Z,17.10
2018-09-26T09:03:50.847Z,17.30
2018-09-26T09:06:19.680Z,17.20
2018-09-26T09:08:48.488Z,17.80
2018-09-26T09:11:17.342Z,18.30
2018-09-26T09:13:46.138Z,18.20
2018-09-26T09:16:15.110Z,18.50
2018-09-26T09:18:43.957Z,19.40
2018-09-26T09:21:12.829Z,20.00
2018-09-26T09:23:41.674Z,20.80
2018-09-26T09:26:10.545Z,21.40
2018-09-26T09:28:39.480Z,21.00
2018-09-26T09:31:08.362Z,20.60
2018-09-26T09:33:37.236Z,20.90
2018-09-26T09:36:06.236Z,20.70
2018-09-26T09:38:35.075Z,20.90
2018-09-26T09:41:04.100Z,21.10
2018-09-26T09:43:33.020Z,21.70
2018-09-26T09:46:01.889Z,21.90
2018-09-26T09:48:30.759Z,20.70
2018-09-26T09:51:00.217Z,20.60
2018-09-26T09:53:29.147Z,20.60
2018-09-26T09:55:58.130Z,19.70
2018-09-26T09:58:27.145Z,19.30
2018-09-26T10:01:01.885Z,18.90
2018-09-26T10:03:30.853Z,19.60
2018-09-26T10:05:59.736Z,20.40
2018-09-26T10:08:28.600Z,20.70
2018-09-26T10:10:57.600Z,21.00
2018-09-26T10:13:26.664Z,20.50
2018-09-26T10:15:55.891Z,19.90
2018-09-26T10:18:24.720Z,20.00
2018-09-26T10:20:53.964Z,20.10
2018-09-26T10:23:23.016Z,20.10
2018-09-26T10:25:52.144Z,20.10
2018-09-26T10:28:21.411Z,19.90
2018-09-26T10:30:50.674Z,19.50
2018-09-26T10:33:19.590Z,19.50
2018-09-26T10:35:48.565Z,19.40
2018-09-26T10:38:17.618Z,19.00
2018-09-26T10:40:46.950Z,18.80
2018-09-26T10:43:16.284Z,18.90
2018-09-26T10:45:45.309Z,18.70
2018-09-26T10:48:14.506Z,18.90
2018-09-26T10:50:43.419Z,19.40
2018-09-26T10:53:12.450Z,19.80
2018-09-26T10:55:41.594Z,20.30
2018-09-26T10:58:10.623Z,20.40
2018-09-26T11:00:39.654Z,20.70
2018-09-26T11:03:08.485Z,21.30
2018-09-26T11:05:37.446Z,20.60
2018-09-26T11:08:06.443Z,20.60
2018-09-26T11:10:35.208Z,21.20
2018-09-26T11:13:04.035Z,21.90
2018-09-26T11:15:32.891Z,22.20
2018-09-26T11:18:02.325Z,22.50
2018-09-26T11:20:31.827Z,21.80
2018-09-26T11:23:00.744Z,21.30
2018-09-26T11:25:29.772Z,21.30
2018-09-26T11:27:58.658Z,21.70
2018-09-26T11:30:28.016Z,22.00
2018-09-26T11:32:57.021Z,22.30
2018-09-26T11:35:26.076Z,22.10
2018-09-26T11:37:54.975Z,22.20
2018-09-26T11:40:24.046Z,22.80
2018-09-26T11:42:53.306Z,23.10
2018-09-26T11:45:22.298Z,22.70
2018-09-26T11:47:51.399Z,22.40
2018-09-26T11:50:20.391Z,22.60
2018-09-26T11:52:49.387Z,22.60
2018-09-26T11:55:18.669Z,23.40
2018-09-26T11:57:47.568Z,23.80
2018-09-26T12:00:16.597Z,23.50
2018-09-26T12:02:46.171Z,23.90
2018-09-26T12:05:15.224Z,23.70
2018-09-26T12:07:52.126Z,24.00
2018-09-26T12:10:21.268Z,24.40
2018-09-26T12:12:50.364Z,24.60
2018-09-26T12:15:19.171Z,24.60
2018-09-26T12:17:48.146Z,25.00
2018-09-26T12:20:17.214Z,24.80
2018-09-26T12:22:46.096Z,25.10
2018-09-26T12:25:15.064Z,24.60
2018-09-26T12:27:44.099Z,25.40
2018-09-26T12:30:13.178Z,25.40
2018-09-26T12:32:42.104Z,25.40
2018-09-26T12:35:10.967Z,25.90
2018-09-26T12:37:39.824Z,26.50
2018-09-26T12:40:09.106Z,27.20
2018-09-26T12:42:38.227Z,26.80
2018-09-26T12:45:07.201Z,27.20
2018-09-26T12:47:36.170Z,26.90
2018-09-26T12:50:05.872Z,26.50
2018-09-26T12:52:34.673Z,27.00
2018-09-26T12:55:03.603Z,27.90
2018-09-26T12:57:32.635Z,28.60
2018-09-26T13:00:01.668Z,29.50
2018-09-26T13:02:30.577Z,28.80
2018-09-26T13:04:59.747Z,28.00
2018-09-26T13:07:28.901Z,27.90
2018-09-26T13:09:57.888Z,27.60
2018-09-26T13:12:26.841Z,27.80
2018-09-26T13:14:55.984Z,27.20
2018-09-26T13:17:24.924Z,27.00
2018-09-26T13:19:53.864Z,27.90
2018-09-26T13:22:22.801Z,28.20
2018-09-26T13:24:51.754Z,28.30
2018-09-26T13:27:21.643Z,28.10
2018-09-26T13:29:50.833Z,28.10
2018-09-26T13:32:20.840Z,27.00
2018-09-26T13:34:49.784Z,26.50
2018-09-26T13:37:18.582Z,26.60
2018-09-26T13:39:47.997Z,27.10
2018-09-26T13:42:16.954Z,27.60
2018-09-26T13:44:45.749Z,27.20
2018-09-26T13:47:14.758Z,27.50
2018-09-26T13:49:43.682Z,28.10
2018-09-26T13:52:12.961Z,29.10
2018-09-26T13:54:41.796Z,29.80
2018-09-26T13:57:10.703Z,29.90
2018-09-26T13:59:39.851Z,29.10
2018-09-26T14:02:08.663Z,29.30
2018-09-26T14:04:37.631Z,29.50
2018-09-26T14:07:06.856Z,29.70
2018-09-26T14:09:35.663Z,29.30
2018-09-26T14:12:04.993Z,29.80
2018-09-26T14:14:33.801Z,30.00
2018-09-26T14:17:07.749Z,28.50
2018-09-26T14:19:36.971Z,27.50
2018-09-26T14:22:05.924Z,27.90
2018-09-26T14:24:35.018Z,29.00
2018-09-26T14:27:03.841Z,30.00
2018-09-26T14:29:32.795Z,30.20
2018-09-26T14:32:01.655Z,30.10
2018-09-26T14:34:30.687Z,29.60
2018-09-26T14:36:59.510Z,28.90
2018-09-26T14:39:28.419Z,28.30
2018-09-26T14:41:57.169Z,28.20
2018-09-26T14:44:26.053Z,28.20
2018-09-26T14:46:55.242Z,28.40
2018-09-26T14:49:24.186Z,27.80
2018-09-26T14:51:52.993Z,25.90
2018-09-26T14:54:21.777Z,24.40
2018-09-26T14:56:50.685Z,23.00
2018-09-26T14:59:19.861Z,22.10
2018-09-26T15:01:48.758Z,21.60
2018-09-26T15:04:17.679Z,21.10
2018-09-26T15:06:46.420Z,20.70
2018-09-26T15:09:15.588Z,20.20
2018-09-26T15:11:44.926Z,20.00
2018-09-26T15:14:14.023Z,19.70
2018-09-26T15:16:42.968Z,19.60
2018-09-26T15:19:12.205Z,19.30
2018-09-26T15:21:41.072Z,19.10
2018-09-26T15:24:10.070Z,19.00
2018-09-26T15:26:38.853Z,18.90
2018-09-26T15:29:07.643Z,18.80
2018-09-26T15:31:36.503Z,18.60
2018-09-26T15:34:05.444Z,18.60
2018-09-26T15:36:34.798Z,18.50
2018-09-26T15:39:04.786Z,18.50
2018-09-26T15:41:33.732Z,18.40
2018-09-26T15:44:02.491Z,18.40
2018-09-26T15:46:31.352Z,18.40
2018-09-26T15:49:00.319Z,18.30
2018-09-26T15:51:29.222Z,18.20
2018-09-26T15:53:58.164Z,18.20
2018-09-26T15:56:26.968Z,18.10
2018-09-26T15:58:55.915Z,17.90
2018-09-26T16:01:24.942Z,17.70
2018-09-26T16:03:53.848Z,17.50
2018-09-26T16:06:23.258Z,17.30
2018-09-26T16:08:52.643Z,17.10
2018-09-26T16:11:21.742Z,16.90
2018-09-26T16:13:51.163Z,16.80
2018-09-26T16:16:20.339Z,16.60
2018-09-26T16:18:49.200Z,16.40
2018-09-26T16:21:18.336Z,16.30
2018-09-26T16:23:47.147Z,16.00
2018-09-26T16:26:16.184Z,15.90
2018-09-26T16:28:45.100Z,15.70
2018-09-26T16:31:13.891Z,15.60
2018-09-26T16:33:42.908Z,15.40
2018-09-26T16:36:15.072Z,15.30
2018-09-26T16:38:43.969Z,15.20
2018-09-26T16:41:12.855Z,15.00
2018-09-26T16:43:41.926Z,14.70
2018-09-26T16:46:10.948Z,14.50
2018-09-26T16:48:39.805Z,14.30
2018-09-26T16:51:08.820Z,14.10
2018-09-26T16:53:37.737Z,13.90
2018-09-26T16:56:07.074Z,13.80
2018-09-26T16:58:36.122Z,13.60
2018-09-26T17:01:05.032Z,13.40
2018-09-26T17:03:36.189Z,13.20
2018-09-26T17:06:05.249Z,13.10
2018-09-26T17:08:34.182Z,12.80
2018-09-26T17:11:03.230Z,12.70
2018-09-26T17:13:32.164Z,12.60
2018-09-26T17:16:01.479Z,12.30
2018-09-26T17:18:30.476Z,12.20
2018-09-26T17:20:59.343Z,12.00
2018-09-26T17:23:28.185Z,11.70
2018-09-26T17:25:57.002Z,11.60
2018-09-26T17:28:25.986Z,11.40
2018-09-26T17:30:54.833Z,11.30
2018-09-26T17:33:23.656Z,11.20
2018-09-26T17:35:52.541Z,11.10
2018-09-26T17:38:21.377Z,11.10
2018-09-26T17:40:50.519Z,11.10
2018-09-26T17:43:19.465Z,11.00
2018-09-26T17:45:48.371Z,10.90
2018-09-26T17:48:17.372Z,10.70
2018-09-26T17:50:46.462Z,10.60
2018-09-26T17:53:15.490Z,10.40
2018-09-26T17:55:44.347Z,10.20
2018-09-26T17:58:13.197Z,10.10
2018-09-26T18:00:42.074Z,10.00
2018-09-26T18:03:11.031Z,10.00
2018-09-26T18:05:40.121Z,10.00
2018-09-26T18:08:09.078Z,9.80
2018-09-26T18:10:38.391Z,9.80
2018-09-26T18:13:07.320Z,9.80
2018-09-26T18:15:36.370Z,9.80
2018-09-26T18:18:05.724Z,9.80
2018-09-26T18:20:34.640Z,9.70
2018-09-26T18:23:03.805Z,9.60
2018-09-26T18:25:32.866Z,9.60
2018-09-26T18:28:01.960Z,9.60
2018-09-26T18:30:31.254Z,9.60
2018-09-26T18:33:00.240Z,9.40
2018-09-26T18:35:29.407Z,9.40
2018-09-26T18:37:58.394Z,9.30
2018-09-26T18:40:27.363Z,9.30
2018-09-26T18:42:56.463Z,9.30
2018-09-26T18:45:25.434Z,9.20
2018-09-26T18:47:55.340Z,9.10
2018-09-26T18:50:24.418Z,8.90
2018-09-26T18:52:53.499Z,8.80
2018-09-26T18:55:22.579Z,8.80
2018-09-26T18:57:51.699Z,8.80
2018-09-26T19:00:20.739Z,8.80
2018-09-26T19:02:49.584Z,8.70
2018-09-26T19:05:18.553Z,8.70
2018-09-26T19:07:47.951Z,8.60
2018-09-26T19:10:16.885Z,8.50
2018-09-26T19:12:45.754Z,8.40
2018-09-26T19:15:14.958Z,8.30
2018-09-26T19:17:44.054Z,8.20
2018-09-26T19:20:13.776Z,8.20
2018-09-26T19:22:43.743Z,8.10
2018-09-26T19:25:13.030Z,8.20
2018-09-26T19:27:42.491Z,8.10
2018-09-26T19:30:11.797Z,8.10
2018-09-26T19:32:40.902Z,8.10
2018-09-26T19:35:12.861Z,8.00
2018-09-26T19:37:41.964Z,8.00
2018-09-26T19:40:11.013Z,8.00
2018-09-26T19:42:40.142Z,8.10
2018-09-26T19:45:09.381Z,8.20
2018-09-26T19:47:38.189Z,8.20
2018-09-26T19:50:07.759Z,8.40
2018-09-26T19:52:36.854Z,8.30
2018-09-26T19:55:06.130Z,8.30
2018-09-26T19:57:35.169Z,8.20
2018-09-26T20:00:04.181Z,8.20
2018-09-26T20:02:33.127Z,8.30
2018-09-26T20:05:02.096Z,8.40
2018-09-26T20:07:31.525Z,8.50
2018-09-26T20:10:00.738Z,8.40
2018-09-26T20:12:30.065Z,8.40
2018-09-26T20:14:59.338Z,8.40
2018-09-26T20:17:28.360Z,8.50
2018-09-26T20:19:57.403Z,8.40
2018-09-26T20:22:26.586Z,8.30
2018-09-26T20:24:56.664Z,8.20
2018-09-26T20:27:26.102Z,8.10
2018-09-26T20:29:58.045Z,8.00
2018-09-26T20:32:27.399Z,7.90
2018-09-26T20:34:56.561Z,7.90
2018-09-26T20:37:25.547Z,7.80
2018-09-26T20:39:54.371Z,7.80
2018-09-26T20:42:24.160Z,7.70
2018-09-26T20:44:53.103Z,7.60
2018-09-26T20:47:22.006Z,7.50
2018-09-26T20:49:52.663Z,7.60
2018-09-26T20:52:21.551Z,7.60
2018-09-26T20:54:50.800Z,7.50
2018-09-26T20:57:19.958Z,7.60
2018-09-26T20:59:49.307Z,7.70
2018-09-26T21:02:18.447Z,7.80
2018-09-26T21:04:47.248Z,7.80
2018-09-26T21:07:16.349Z,7.90
2018-09-26T21:09:45.437Z,7.90
2018-09-26T21:12:14.292Z,7.90
2018-09-26T21:14:43.161Z,7.90
2018-09-26T21:17:12.423Z,8.00
2018-09-26T21:19:43.105Z,8.00
2018-09-26T21:22:12.483Z,8.00
2018-09-26T21:24:42.349Z,8.10
2018-09-26T21:27:12.663Z,7.90
2018-09-26T21:29:42.152Z,7.80
2018-09-26T21:32:12.156Z,7.80
2018-09-26T21:34:41.521Z,7.70
2018-09-26T21:37:11.084Z,7.70
2018-09-26T21:39:40.455Z,7.60
2018-09-26T21:42:10.218Z,7.60
2018-09-26T21:44:39.316Z,7.60
2018-09-26T21:47:08.162Z,7.50
2018-09-26T21:49:36.972Z,7.30
2018-09-26T21:52:05.853Z,7.20
2018-09-26T21:54:34.820Z,7.10
2018-09-26T21:57:03.871Z,7.20
2018-09-26T21:59:32.721Z,7.10
2018-09-26T22:02:02.214Z,7.20
2018-09-26T22:04:31.159Z,7.20
2018-09-26T22:07:00.464Z,7.20
2018-09-26T22:09:29.297Z,7.30
2018-09-26T22:11:58.294Z,7.40
2018-09-26T22:14:27.935Z,7.30
2018-09-26T22:16:56.700Z,7.30
2018-09-26T22:19:26.123Z,7.30
2018-09-26T22:21:55.404Z,7.30
2018-09-26T22:24:24.302Z,7.30
2018-09-26T22:27:01.528Z,7.30
2018-09-26T22:29:30.718Z,7.30
2018-09-26T22:31:59.663Z,7.20
2018-09-26T22:34:28.750Z,7.10
2018-09-26T22:36:57.626Z,7.10
2018-09-26T22:39:26.786Z,7.00
2018-09-26T22:41:55.756Z,6.90
2018-09-26T22:44:24.812Z,6.80
2018-09-26T22:46:53.616Z,6.70
2018-09-26T22:49:22.507Z,6.60
2018-09-26T22:51:51.778Z,6.50
2018-09-26T22:54:20.851Z,6.50
2018-09-26T22:56:49.877Z,6.40
2018-09-26T22:59:18.820Z,6.30
2018-09-26T23:01:47.912Z,6.30
2018-09-26T23:04:16.882Z,6.20
2018-09-26T23:06:46.509Z,6.20
2018-09-26T23:09:15.318Z,6.30
2018-09-26T23:11:44.258Z,6.40
2018-09-26T23:14:13.088Z,6.50
2018-09-26T23:16:41.894Z,6.50
2018-09-26T23:19:10.856Z,6.50
2018-09-26T23:21:39.611Z,6.60
2018-09-26T23:24:08.417Z,6.60
2018-09-26T23:26:37.194Z,6.60
2018-09-26T23:29:06.082Z,6.60
2018-09-26T23:31:35.069Z,6.50
2018-09-26T23:34:03.927Z,6.50
2018-09-26T23:36:32.656Z,6.50
2018-09-26T23:39:01.413Z,6.50
2018-09-26T23:41:30.195Z,6.50
2018-09-26T23:43:59.174Z,6.50
2018-09-26T23:46:27.979Z,6.50
2018-09-26T23:48:56.729Z,6.50
2018-09-26T23:51:25.442Z,6.50
2018-09-26T23:53:54.327Z,6.50
2018-09-26T23:56:23.295Z,6.40
2018-09-26T23:58:52.125Z,6.50
